This is the latest recevied weather packets stored in our database for station/object IK1YPD-13. If no packets are shown the sender has not sent any weather packets the latest 10 day(s).
| Time | Temp. | Humidity | Pressure | Rain* | Wind** | Luminosity | Snow |
|---|---|---|---|---|---|---|---|
| 1777780413 | 8.33° C | 77% | 1017 hPa | - | - | - | - |
| 1777779513 | 8.89° C | 76% | 1017 hPa | - | - | - | - |
| 1777778613 | 8.89° C | 76% | 1017 hPa | - | - | - | - |
| 1777777713 | 8.89° C | 75% | 1017 hPa | - | - | - | - |
| 1777776813 | 8.89° C | 75% | 1017 hPa | - | - | - | - |
| 1777775913 | 8.89° C | 76% | 1017 hPa | - | - | - | - |
| 1777775013 | 8.89° C | 74% | 1017 hPa | - | - | - | - |
| 1777774113 | 8.89° C | 75% | 1017 hPa | - | - | - | - |
| 1777773213 | 8.89° C | 73% | 1017 hPa | - | - | - | - |
| 1777767812 | 9.44° C | 74% | 1017 hPa | - | - | - | - |
| 1777764211 | 10.56° C | 71% | 1017 hPa | - | - | - | - |
| 1777760611 | 11.11° C | 70% | 1018 hPa | - | - | - | - |
| 1777759711 | 11.11° C | 70% | 1018 hPa | - | - | - | - |
| 1777758810 | 11.11° C | 71% | 1018 hPa | - | - | - | - |
| 1777757910 | 11.67° C | 69% | 1018 hPa | - | - | - | - |
| 1777757010 | 11.67° C | 69% | 1018 hPa | - | - | - | - |
| 1777754310 | 12.22° C | 68% | 1018 hPa | - | - | - | - |
| 1777743509 | 18.33° C | 45% | 1017 hPa | - | - | - | - |
| 1777741709 | 18.33° C | 46% | 1018 hPa | - | - | - | - |
| 1777739909 | 18.33° C | 46% | 1018 hPa | - | - | - | - |
| 1777738108 | 18.89° C | 44% | 1018 hPa | - | - | - | - |
| 1777736308 | 19.44° C | 45% | 1018 hPa | - | - | - | - |
| 1777735408 | 20° C | 45% | 1018 hPa | - | - | - | - |
| 1777734508 | 19.44° C | 47% | 1019 hPa | - | - | - | - |
| 1777732708 | 19.44° C | 44% | 1019 hPa | - | - | - | - |
* Rain since midnight (hover to see other rain measurements)
** Current wind speed in m/s (hover to see current wind gust speed)